sensor_id;sensor_type;location;lat;lon;timestamp;pressure;altitude;pressure_sealevel;temperature;humidity
12759;BME280;20944;47.048;15.390;2023-04-29T00:01:04;97238.16;;;11.28;100.00
12759;BME280;20944;47.048;15.390;2023-04-29T00:03:33;97231.19;;;11.27;100.00
12759;BME280;20944;47.048;15.390;2023-04-29T00:06:01;97210.50;;;11.19;100.00
12759;BME280;20944;47.048;15.390;2023-04-29T00:08:30;97210.16;;;11.28;100.00
12759;BME280;20944;47.048;15.390;2023-04-29T00:10:58;97191.44;;;11.38;100.00
12759;BME280;20944;47.048;15.390;2023-04-29T00:13:26;97192.94;;;11.45;100.00
12759;BME280;20944;47.048;15.390;2023-04-29T00:15:55;97180.06;;;11.39;100.00
12759;BME280;20944;47.048;15.390;2023-04-29T00:18:24;97174.88;;;11.14;100.00
12759;BME280;20944;47.048;15.390;2023-04-29T00:20:52;97200.28;;;11.12;100.00
12759;BME280;20944;47.048;15.390;2023-04-29T00:23:20;97195.66;;;11.18;100.00
12759;BME280;20944;47.048;15.390;2023-04-29T00:25:48;97171.63;;;11.07;100.00
12759;BME280;20944;47.048;15.390;2023-04-29T00:28:19;97177.44;;;11.15;100.00
12759;BME280;20944;47.048;15.390;2023-04-29T00:30:47;97185.00;;;11.23;100.00
12759;BME280;20944;47.048;15.390;2023-04-29T00:33:17;97188.94;;;11.11;100.00
12759;BME280;20944;47.048;15.390;2023-04-29T00:35:45;97194.47;;;11.03;100.00
12759;BME280;20944;47.048;15.390;2023-04-29T00:38:13;97190.47;;;10.93;100.00
12759;BME280;20944;47.048;15.390;2023-04-29T00:40:42;97114.06;;;10.32;100.00
12759;BME280;20944;47.048;15.390;2023-04-29T00:43:10;97115.09;;;10.28;100.00
12759;BME280;20944;47.048;15.390;2023-04-29T00:45:38;97241.59;;;11.05;100.00
12759;BME280;20944;47.048;15.390;2023-04-29T00:48:07;97237.41;;;11.01;100.00
12759;BME280;20944;47.048;15.390;2023-04-29T00:50:36;97146.41;;;10.31;100.00
12759;BME280;20944;47.048;15.390;2023-04-29T00:53:05;97243.09;;;10.87;100.00
12759;BME280;20944;47.048;15.390;2023-04-29T00:55:34;97248.41;;;10.86;100.00
12759;BME280;20944;47.048;15.390;2023-04-29T00:58:04;97224.53;;;10.70;100.00
12759;BME280;20944;47.048;15.390;2023-04-29T01:00:32;97258.38;;;10.76;100.00
12759;BME280;20944;47.048;15.390;2023-04-29T01:03:00;97252.22;;;10.77;100.00
12759;BME280;20944;47.048;15.390;2023-04-29T01:05:30;97235.91;;;10.69;100.00
12759;BME280;20944;47.048;15.390;2023-04-29T01:08:12;97256.69;;;10.73;100.00
12759;BME280;20944;47.048;15.390;2023-04-29T01:10:48;97258.72;;;10.65;100.00
12759;BME280;20944;47.048;15.390;2023-04-29T01:13:28;97210.06;;;10.33;100.00
12759;BME280;20944;47.048;15.390;2023-04-29T01:16:00;97235.94;;;10.67;100.00
12759;BME280;20944;47.048;15.390;2023-04-29T01:18:32;97251.66;;;10.67;100.00
12759;BME280;20944;47.048;15.390;2023-04-29T01:21:03;97213.09;;;10.19;100.00
12759;BME280;20944;47.048;15.390;2023-04-29T01:23:33;97250.69;;;10.45;100.00
12759;BME280;20944;47.048;15.390;2023-04-29T01:26:01;97249.72;;;10.47;100.00
12759;BME280;20944;47.048;15.390;2023-04-29T01:28:41;97233.63;;;10.33;100.00
12759;BME280;20944;47.048;15.390;2023-04-29T01:31:18;97172.47;;;9.81;100.00
12759;BME280;20944;47.048;15.390;2023-04-29T01:33:52;97270.16;;;10.36;100.00
12759;BME280;20944;47.048;15.390;2023-04-29T01:36:29;97230.59;;;10.17;100.00
12759;BME280;20944;47.048;15.390;2023-04-29T01:39:08;97252.66;;;10.38;100.00
12759;BME280;20944;47.048;15.390;2023-04-29T01:41:42;97254.31;;;10.41;100.00
12759;BME280;20944;47.048;15.390;2023-04-29T01:44:14;97258.69;;;10.40;100.00
12759;BME280;20944;47.048;15.390;2023-04-29T01:46:47;97260.47;;;10.40;100.00
12759;BME280;20944;47.048;15.390;2023-04-29T01:49:19;97263.09;;;10.40;100.00
12759;BME280;20944;47.048;15.390;2023-04-29T01:51:47;97258.69;;;10.40;100.00
12759;BME280;20944;47.048;15.390;2023-04-29T01:54:18;97233.88;;;10.25;100.00
12759;BME280;20944;47.048;15.390;2023-04-29T01:56:46;97249.19;;;10.38;100.00
12759;BME280;20944;47.048;15.390;2023-04-29T01:59:15;97267.16;;;10.48;100.00
12759;BME280;20944;47.048;15.390;2023-04-29T02:01:43;97266.22;;;10.51;100.00
12759;BME280;20944;47.048;15.390;2023-04-29T02:04:11;97259.41;;;10.45;100.00
12759;BME280;20944;47.048;15.390;2023-04-29T02:06:39;97264.78;;;10.41;100.00
12759;BME280;20944;47.048;15.390;2023-04-29T02:09:07;97264.06;;;10.36;100.00
12759;BME280;20944;47.048;15.390;2023-04-29T02:11:37;97262.44;;;10.33;100.00
12759;BME280;20944;47.048;15.390;2023-04-29T02:14:05;97236.69;;;10.18;100.00
12759;BME280;20944;47.048;15.390;2023-04-29T02:16:33;97264.19;;;10.33;100.00
12759;BME280;20944;47.048;15.390;2023-04-29T02:19:01;97261.66;;;10.30;100.00
12759;BME280;20944;47.048;15.390;2023-04-29T02:21:30;97230.16;;;10.05;100.00
12759;BME280;20944;47.048;15.390;2023-04-29T02:23:58;97256.78;;;10.17;100.00
12759;BME280;20944;47.048;15.390;2023-04-29T02:26:26;97245.78;;;10.08;100.00
12759;BME280;20944;47.048;15.390;2023-04-29T02:28:56;97253.28;;;10.18;100.00
12759;BME280;20944;47.048;15.390;2023-04-29T02:31:24;97249.19;;;10.10;100.00
12759;BME280;20944;47.048;15.390;2023-04-29T02:33:52;97253.63;;;10.08;100.00
12759;BME280;20944;47.048;15.390;2023-04-29T02:36:21;97247.94;;;9.95;100.00
12759;BME280;20944;47.048;15.390;2023-04-29T02:38:50;97263.44;;;10.01;100.00
12759;BME280;20944;47.048;15.390;2023-04-29T02:41:21;97270.25;;;10.05;100.00
12759;BME280;20944;47.048;15.390;2023-04-29T02:43:49;97248.84;;;9.92;100.00
12759;BME280;20944;47.048;15.390;2023-04-29T02:46:18;97266.19;;;9.96;100.00
12759;BME280;20944;47.048;15.390;2023-04-29T02:48:47;97255.31;;;9.82;100.00
12759;BME280;20944;47.048;15.390;2023-04-29T02:51:15;97280.56;;;9.83;100.00
12759;BME280;20944;47.048;15.390;2023-04-29T02:53:43;97256.16;;;9.83;100.00
12759;BME280;20944;47.048;15.390;2023-04-29T02:56:11;97270.03;;;9.85;100.00
12759;BME280;20944;47.048;15.390;2023-04-29T02:58:39;97273.31;;;9.91;100.00
12759;BME280;20944;47.048;15.390;2023-04-29T03:01:08;97273.25;;;9.93;100.00
12759;BME280;20944;47.048;15.390;2023-04-29T03:03:38;97269.78;;;9.92;100.00
12759;BME280;20944;47.048;15.390;2023-04-29T03:06:06;97269.25;;;9.83;100.00
12759;BME280;20944;47.048;15.390;2023-04-29T03:08:35;97265.09;;;9.76;100.00
12759;BME280;20944;47.048;15.390;2023-04-29T03:11:03;97267.78;;;9.72;100.00
12759;BME280;20944;47.048;15.390;2023-04-29T03:13:31;97271.25;;;9.73;100.00
12759;BME280;20944;47.048;15.390;2023-04-29T03:15:59;97271.19;;;9.76;100.00
12759;BME280;20944;47.048;15.390;2023-04-29T03:18:27;97267.59;;;9.79;100.00
12759;BME280;20944;47.048;15.390;2023-04-29T03:20:57;97230.75;;;9.58;100.00
12759;BME280;20944;47.048;15.390;2023-04-29T03:23:25;97266.56;;;9.84;100.00
12759;BME280;20944;47.048;15.390;2023-04-29T03:25:53;97262.56;;;9.72;100.00
12759;BME280;20944;47.048;15.390;2023-04-29T03:28:22;97263.69;;;9.64;100.00
12759;BME280;20944;47.048;15.390;2023-04-29T03:30:50;97259.41;;;9.61;100.00
12759;BME280;20944;47.048;15.390;2023-04-29T03:33:18;97261.16;;;9.61;100.00
12759;BME280;20944;47.048;15.390;2023-04-29T03:35:47;97256.75;;;9.63;100.00
12759;BME280;20944;47.048;15.390;2023-04-29T03:38:16;97258.53;;;9.61;100.00
12759;BME280;20944;47.048;15.390;2023-04-29T03:40:44;97261.94;;;9.64;100.00
12759;BME280;20944;47.048;15.390;2023-04-29T03:43:13;97263.53;;;9.70;100.00
12759;BME280;20944;47.048;15.390;2023-04-29T03:45:41;97247.22;;;9.60;100.00
12759;BME280;20944;47.048;15.390;2023-04-29T03:48:09;97261.03;;;9.65;100.00
12759;BME280;20944;47.048;15.390;2023-04-29T03:50:38;97254.66;;;9.74;100.00
12759;BME280;20944;47.048;15.390;2023-04-29T03:53:06;97247.16;;;9.63;100.00
12759;BME280;20944;47.048;15.390;2023-04-29T03:55:36;97249.72;;;9.65;100.00
12759;BME280;20944;47.048;15.390;2023-04-29T03:58:04;97260.25;;;9.63;100.00
12759;BME280;20944;47.048;15.390;2023-04-29T04:00:32;97257.63;;;9.63;100.00
12759;BME280;20944;47.048;15.390;2023-04-29T04:03:00;97240.41;;;9.56;100.00
12759;BME280;20944;47.048;15.390;2023-04-29T04:05:31;97238.66;;;9.55;100.00
12759;BME280;20944;47.048;15.390;2023-04-29T04:07:59;97259.38;;;9.63;100.00
12759;BME280;20944;47.048;15.390;2023-04-29T04:10:27;97256.72;;;9.64;100.00
12759;BME280;20944;47.048;15.390;2023-04-29T04:12:57;97259.22;;;9.67;100.00
12759;BME280;20944;47.048;15.390;2023-04-29T04:15:25;97165.56;;;9.23;100.00
12759;BME280;20944;47.048;15.390;2023-04-29T04:17:53;97261.28;;;9.86;100.00
12759;BME280;20944;47.048;15.390;2023-04-29T04:20:22;97258.34;;;9.96;100.00
12759;BME280;20944;47.048;15.390;2023-04-29T04:22:50;97140.09;;;9.29;100.00
12759;BME280;20944;47.048;15.390;2023-04-29T04:25:20;97254.88;;;9.96;100.00
12759;BME280;20944;47.048;15.390;2023-04-29T04:27:48;97278.03;;;10.08;100.00
12759;BME280;20944;47.048;15.390;2023-04-29T04:30:18;97272.59;;;10.14;100.00
12759;BME280;20944;47.048;15.390;2023-04-29T04:32:46;97252.47;;;10.16;100.00
12759;BME280;20944;47.048;15.390;2023-04-29T04:35:14;97272.06;;;10.33;100.00
12759;BME280;20944;47.048;15.390;2023-04-29T04:37:43;97282.66;;;10.54;100.00
12759;BME280;20944;47.048;15.390;2023-04-29T04:40:12;97272.28;;;10.78;100.00
12759;BME280;20944;47.048;15.390;2023-04-29T04:42:40;97266.25;;;10.74;100.00
12759;BME280;20944;47.048;15.390;2023-04-29T04:45:09;97260.03;;;10.78;100.00
12759;BME280;20944;47.048;15.390;2023-04-29T04:47:40;97271.22;;;10.84;100.00
12759;BME280;20944;47.048;15.390;2023-04-29T04:50:09;97271.22;;;10.84;100.00
12759;BME280;20944;47.048;15.390;2023-04-29T04:52:37;97267.78;;;10.82;100.00
12759;BME280;20944;47.048;15.390;2023-04-29T04:55:07;97272.84;;;10.86;100.00
12759;BME280;20944;47.048;15.390;2023-04-29T04:57:35;97272.22;;;10.79;100.00
12759;BME280;20944;47.048;15.390;2023-04-29T05:00:04;97264.34;;;10.79;100.00
12759;BME280;20944;47.048;15.390;2023-04-29T05:02:33;97283.63;;;11.03;100.00
12759;BME280;20944;47.048;15.390;2023-04-29T05:05:03;97273.47;;;11.18;100.00
12759;BME280;20944;47.048;15.390;2023-04-29T05:07:32;97273.72;;;11.35;100.00
12759;BME280;20944;47.048;15.390;2023-04-29T05:10:01;97276.66;;;11.51;100.00
12759;BME280;20944;47.048;15.390;2023-04-29T05:12:30;97219.34;;;11.40;100.00
12759;BME280;20944;47.048;15.390;2023-04-29T05:14:58;97287.63;;;11.85;100.00
12759;BME280;20944;47.048;15.390;2023-04-29T05:17:27;97298.41;;;12.01;100.00
12759;BME280;20944;47.048;15.390;2023-04-29T05:19:55;97285.06;;;12.06;100.00
12759;BME280;20944;47.048;15.390;2023-04-29T05:22:25;97294.00;;;12.24;100.00
12759;BME280;20944;47.048;15.390;2023-04-29T05:24:53;97269.31;;;12.28;100.00
12759;BME280;20944;47.048;15.390;2023-04-29T05:27:28;97277.97;;;12.52;100.00
12759;BME280;20944;47.048;15.390;2023-04-29T05:29:56;97277.59;;;12.61;100.00
12759;BME280;20944;47.048;15.390;2023-04-29T05:32:24;97276.72;;;12.60;100.00
12759;BME280;20944;47.048;15.390;2023-04-29T05:34:53;97215.38;;;12.19;100.00
12759;BME280;20944;47.048;15.390;2023-04-29T05:37:21;97261.00;;;12.38;100.00
12759;BME280;20944;47.048;15.390;2023-04-29T05:39:51;97296.50;;;12.49;100.00
12759;BME280;20944;47.048;15.390;2023-04-29T05:42:19;97300.63;;;12.54;100.00
12759;BME280;20944;47.048;15.390;2023-04-29T05:44:49;97311.94;;;12.56;100.00
12759;BME280;20944;47.048;15.390;2023-04-29T05:47:17;97309.13;;;12.61;100.00
12759;BME280;20944;47.048;15.390;2023-04-29T05:49:46;97308.63;;;12.73;100.00
12759;BME280;20944;47.048;15.390;2023-04-29T05:52:14;97273.53;;;12.74;100.00
12759;BME280;20944;47.048;15.390;2023-04-29T05:54:42;97301.22;;;13.03;100.00
12759;BME280;20944;47.048;15.390;2023-04-29T05:57:12;97299.44;;;13.04;100.00
12759;BME280;20944;47.048;15.390;2023-04-29T05:59:40;97086.69;;;11.77;100.00
12759;BME280;20944;47.048;15.390;2023-04-29T06:02:08;97301.47;;;13.17;100.00
12759;BME280;20944;47.048;15.390;2023-04-29T06:04:37;97308.00;;;13.29;100.00
12759;BME280;20944;47.048;15.390;2023-04-29T06:07:07;97275.94;;;13.19;100.00
12759;BME280;20944;47.048;15.390;2023-04-29T06:09:36;97303.56;;;13.50;100.00
12759;BME280;20944;47.048;15.390;2023-04-29T06:12:04;97300.53;;;13.59;100.00
12759;BME280;20944;47.048;15.390;2023-04-29T06:14:34;97310.44;;;13.73;100.00
12759;BME280;20944;47.048;15.390;2023-04-29T06:17:02;97306.78;;;13.75;100.00
12759;BME280;20944;47.048;15.390;2023-04-29T06:19:30;97286.16;;;13.66;100.00
12759;BME280;20944;47.048;15.390;2023-04-29T06:21:59;97299.72;;;13.77;100.00
12759;BME280;20944;47.048;15.390;2023-04-29T06:24:27;97305.38;;;13.87;100.00
12759;BME280;20944;47.048;15.390;2023-04-29T06:26:56;97280.91;;;13.85;100.00
12759;BME280;20944;47.048;15.390;2023-04-29T06:29:24;97276.22;;;13.92;100.00
12759;BME280;20944;47.048;15.390;2023-04-29T06:31:53;97307.81;;;14.11;100.00
12759;BME280;20944;47.048;15.390;2023-04-29T06:34:22;97288.44;;;14.12;100.00
12759;BME280;20944;47.048;15.390;2023-04-29T06:36:50;97310.97;;;14.36;100.00
12759;BME280;20944;47.048;15.390;2023-04-29T06:39:18;97301.44;;;14.52;100.00
12759;BME280;20944;47.048;15.390;2023-04-29T06:41:46;97297.19;;;14.67;100.00
12759;BME280;20944;47.048;15.390;2023-04-29T06:44:14;97287.03;;;14.77;100.00
12759;BME280;20944;47.048;15.390;2023-04-29T06:46:44;97284.94;;;14.66;100.00
12759;BME280;20944;47.048;15.390;2023-04-29T06:49:14;97291.06;;;14.67;100.00
12759;BME280;20944;47.048;15.390;2023-04-29T06:51:42;97278.28;;;14.59;100.00
12759;BME280;20944;47.048;15.390;2023-04-29T06:54:11;97299.00;;;14.84;100.00
12759;BME280;20944;47.048;15.390;2023-04-29T06:56:39;97266.31;;;14.87;100.00
12759;BME280;20944;47.048;15.390;2023-04-29T06:59:07;97227.38;;;14.74;100.00
12759;BME280;20944;47.048;15.390;2023-04-29T07:01:37;97293.25;;;15.28;100.00
12759;BME280;20944;47.048;15.390;2023-04-29T07:04:09;97300.56;;;15.38;100.00
12759;BME280;20944;47.048;15.390;2023-04-29T07:06:40;97274.34;;;15.35;100.00
12759;BME280;20944;47.048;15.390;2023-04-29T07:09:12;97295.19;;;15.57;100.00
12759;BME280;20944;47.048;15.390;2023-04-29T07:11:41;97230.13;;;15.23;100.00
12759;BME280;20944;47.048;15.390;2023-04-29T07:14:09;97282.38;;;15.67;100.00
12759;BME280;20944;47.048;15.390;2023-04-29T07:16:37;97295.53;;;15.84;100.00
12759;BME280;20944;47.048;15.390;2023-04-29T07:19:05;97294.00;;;15.96;100.00
12759;BME280;20944;47.048;15.390;2023-04-29T07:21:34;97298.13;;;16.17;100.00
12759;BME280;20944;47.048;15.390;2023-04-29T07:24:04;97282.06;;;16.21;100.00
12759;BME280;20944;47.048;15.390;2023-04-29T07:26:32;97283.31;;;16.45;100.00
12759;BME280;20944;47.048;15.390;2023-04-29T07:29:00;97257.91;;;16.42;100.00
12759;BME280;20944;47.048;15.390;2023-04-29T07:31:29;97287.16;;;16.71;100.00
12759;BME280;20944;47.048;15.390;2023-04-29T07:33:57;97269.97;;;16.78;100.00
12759;BME280;20944;47.048;15.390;2023-04-29T07:36:25;97282.22;;;16.95;100.00
12759;BME280;20944;47.048;15.390;2023-04-29T07:38:54;97281.56;;;16.91;100.00
12759;BME280;20944;47.048;15.390;2023-04-29T07:41:24;97284.72;;;16.98;100.00
12759;BME280;20944;47.048;15.390;2023-04-29T07:43:52;97273.16;;;16.99;100.00
12759;BME280;20944;47.048;15.390;2023-04-29T07:46:20;97292.69;;;17.26;100.00
12759;BME280;20944;47.048;15.390;2023-04-29T07:48:49;97233.19;;;17.04;100.00
12759;BME280;20944;47.048;15.390;2023-04-29T07:51:17;97306.47;;;17.47;100.00
12759;BME280;20944;47.048;15.390;2023-04-29T07:53:45;97301.06;;;17.63;100.00
12759;BME280;20944;47.048;15.390;2023-04-29T07:56:13;97293.13;;;17.77;75.27
12759;BME280;20944;47.048;15.390;2023-04-29T07:58:43;97297.00;;;18.00;73.19
12759;BME280;20944;47.048;15.390;2023-04-29T08:01:11;97253.16;;;17.95;72.21
12759;BME280;20944;47.048;15.390;2023-04-29T08:03:41;97298.41;;;18.47;71.39
12759;BME280;20944;47.048;15.390;2023-04-29T08:06:09;97295.03;;;18.72;69.75
12759;BME280;20944;47.048;15.390;2023-04-29T08:08:38;97284.84;;;18.79;68.75
12759;BME280;20944;47.048;15.390;2023-04-29T08:11:06;97302.22;;;18.97;65.72
12759;BME280;20944;47.048;15.390;2023-04-29T08:13:35;97303.25;;;18.82;63.94
12759;BME280;20944;47.048;15.390;2023-04-29T08:16:05;97300.47;;;18.71;66.10
12759;BME280;20944;47.048;15.390;2023-04-29T08:18:33;97300.56;;;18.69;65.39
12759;BME280;20944;47.048;15.390;2023-04-29T08:21:02;97294.44;;;18.54;63.47
12759;BME280;20944;47.048;15.390;2023-04-29T08:23:30;97301.00;;;18.49;63.42
12759;BME280;20944;47.048;15.390;2023-04-29T08:25:59;97307.44;;;18.45;64.87
12759;BME280;20944;47.048;15.390;2023-04-29T08:28:29;97308.38;;;18.44;65.76
12759;BME280;20944;47.048;15.390;2023-04-29T08:30:57;97306.25;;;18.36;65.55
12759;BME280;20944;47.048;15.390;2023-04-29T08:33:27;97311.09;;;18.29;65.65
12759;BME280;20944;47.048;15.390;2023-04-29T08:35:58;97301.19;;;18.04;65.29
12759;BME280;20944;47.048;15.390;2023-04-29T08:38:29;97162.38;;;17.07;65.20
12759;BME280;20944;47.048;15.390;2023-04-29T08:40:57;97298.72;;;17.87;67.42
12759;BME280;20944;47.048;15.390;2023-04-29T08:43:26;97306.41;;;17.92;66.00
12759;BME280;20944;47.048;15.390;2023-04-29T08:45:54;97307.50;;;18.02;66.26
12759;BME280;20944;47.048;15.390;2023-04-29T08:48:27;97318.59;;;18.23;65.98
12759;BME280;20944;47.048;15.390;2023-04-29T08:50:56;97321.53;;;18.45;68.01
12759;BME280;20944;47.048;15.390;2023-04-29T08:53:25;97252.03;;;17.99;65.62
12759;BME280;20944;47.048;15.390;2023-04-29T08:55:54;97326.13;;;18.43;65.09
12759;BME280;20944;47.048;15.390;2023-04-29T08:58:27;97315.66;;;18.54;66.29
12759;BME280;20944;47.048;15.390;2023-04-29T09:00:57;97308.97;;;18.76;65.70
12759;BME280;20944;47.048;15.390;2023-04-29T09:03:30;97237.59;;;18.44;63.73
12759;BME280;20944;47.048;15.390;2023-04-29T09:06:02;97323.47;;;18.97;62.69
12759;BME280;20944;47.048;15.390;2023-04-29T09:08:32;97307.66;;;18.96;61.70
12759;BME280;20944;47.048;15.390;2023-04-29T09:11:01;97282.47;;;18.89;62.59
12759;BME280;20944;47.048;15.390;2023-04-29T09:13:30;97307.41;;;19.26;62.76
12759;BME280;20944;47.048;15.390;2023-04-29T09:15:59;97267.72;;;19.10;62.74
12759;BME280;20944;47.048;15.390;2023-04-29T09:18:45;97298.03;;;19.33;60.53
12759;BME280;20944;47.048;15.390;2023-04-29T09:21:16;97303.47;;;19.31;62.60
12759;BME280;20944;47.048;15.390;2023-04-29T09:23:49;97300.56;;;19.22;62.77
12759;BME280;20944;47.048;15.390;2023-04-29T09:26:18;97301.94;;;19.14;63.43
12759;BME280;20944;47.048;15.390;2023-04-29T09:29:05;97295.06;;;19.25;65.69
12759;BME280;20944;47.048;15.390;2023-04-29T09:31:34;97278.91;;;19.40;64.84
12759;BME280;20944;47.048;15.390;2023-04-29T09:34:04;97304.47;;;19.81;65.49
12759;BME280;20944;47.048;15.390;2023-04-29T09:36:37;97292.19;;;19.91;62.22
12759;BME280;20944;47.048;15.390;2023-04-29T09:39:06;97274.66;;;19.89;61.06
12759;BME280;20944;47.048;15.390;2023-04-29T09:41:42;97284.88;;;19.95;62.23
12759;BME280;20944;47.048;15.390;2023-04-29T09:44:24;97281.25;;;19.96;61.93
12759;BME280;20944;47.048;15.390;2023-04-29T09:46:55;97285.25;;;20.14;59.31
12759;BME280;20944;47.048;15.390;2023-04-29T09:49:26;97290.78;;;20.24;60.00
12759;BME280;20944;47.048;15.390;2023-04-29T09:51:56;97285.22;;;20.27;59.19
12759;BME280;20944;47.048;15.390;2023-04-29T09:54:27;97167.91;;;19.57;56.64
12759;BME280;20944;47.048;15.390;2023-04-29T09:56:57;97281.81;;;20.25;60.37
12759;BME280;20944;47.048;15.390;2023-04-29T09:59:25;97270.16;;;20.52;60.03
12759;BME280;20944;47.048;15.390;2023-04-29T10:01:55;97197.28;;;20.29;57.77
12759;BME280;20944;47.048;15.390;2023-04-29T10:04:26;97270.09;;;20.88;58.18
12759;BME280;20944;47.048;15.390;2023-04-29T10:06:55;97265.97;;;20.95;56.30
12759;BME280;20944;47.048;15.390;2023-04-29T10:09:23;97263.63;;;21.15;58.17
12759;BME280;20944;47.048;15.390;2023-04-29T10:11:52;97256.63;;;21.25;55.75
12759;BME280;20944;47.048;15.390;2023-04-29T10:14:22;97265.34;;;21.27;57.75
12759;BME280;20944;47.048;15.390;2023-04-29T10:16:58;97257.88;;;21.32;55.45
12759;BME280;20944;47.048;15.390;2023-04-29T10:19:33;97251.31;;;21.36;54.88
12759;BME280;20944;47.048;15.390;2023-04-29T10:22:07;97256.66;;;21.36;54.54
12759;BME280;20944;47.048;15.390;2023-04-29T10:24:37;97251.81;;;21.30;54.76
12759;BME280;20944;47.048;15.390;2023-04-29T10:27:06;97247.81;;;21.36;54.62
12759;BME280;20944;47.048;15.390;2023-04-29T10:29:36;97253.53;;;21.42;52.73
12759;BME280;20944;47.048;15.390;2023-04-29T10:32:08;97256.78;;;21.35;53.29
12759;BME280;20944;47.048;15.390;2023-04-29T10:34:38;97242.13;;;21.40;55.32
12759;BME280;20944;47.048;15.390;2023-04-29T10:37:07;97190.00;;;21.25;56.07
12759;BME280;20944;47.048;15.390;2023-04-29T10:39:42;97213.06;;;21.60;55.61
12759;BME280;20944;47.048;15.390;2023-04-29T10:42:20;97230.00;;;21.81;52.64
12759;BME280;20944;47.048;15.390;2023-04-29T10:45:18;97227.69;;;21.99;54.06
12759;BME280;20944;47.048;15.390;2023-04-29T10:48:11;97219.72;;;22.10;51.09
12759;BME280;20944;47.048;15.390;2023-04-29T10:51:00;97218.34;;;22.04;53.29
12759;BME280;20944;47.048;15.390;2023-04-29T10:53:29;97187.47;;;21.79;53.09
12759;BME280;20944;47.048;15.390;2023-04-29T10:56:03;97215.97;;;21.79;54.29
12759;BME280;20944;47.048;15.390;2023-04-29T10:58:37;97220.34;;;21.58;53.33
12759;BME280;20944;47.048;15.390;2023-04-29T11:01:06;97212.88;;;21.27;53.70
12759;BME280;20944;47.048;15.390;2023-04-29T11:03:48;97223.41;;;21.18;54.30
12759;BME280;20944;47.048;15.390;2023-04-29T11:06:24;97207.84;;;20.89;55.51
12759;BME280;20944;47.048;15.390;2023-04-29T11:09:02;97214.31;;;20.74;56.04
12759;BME280;20944;47.048;15.390;2023-04-29T11:11:57;97152.63;;;20.21;57.34
12759;BME280;20944;47.048;15.390;2023-04-29T11:14:29;97211.28;;;20.43;58.32
12759;BME280;20944;47.048;15.390;2023-04-29T11:16:59;97189.88;;;20.21;58.98
12759;BME280;20944;47.048;15.390;2023-04-29T11:19:32;97205.94;;;20.19;59.77
12759;BME280;20944;47.048;15.390;2023-04-29T11:22:11;97189.19;;;20.06;62.08
12759;BME280;20944;47.048;15.390;2023-04-29T11:24:50;97183.47;;;20.00;63.02
12759;BME280;20944;47.048;15.390;2023-04-29T11:27:21;97133.41;;;19.44;70.16
12759;BME280;20944;47.048;15.390;2023-04-29T11:32:38;97174.69;;;19.11;79.82
12759;BME280;20944;47.048;15.390;2023-04-29T11:41:12;97191.94;;;20.05;65.33
12759;BME280;20944;47.048;15.390;2023-04-29T11:43:41;97182.66;;;20.34;60.63
12759;BME280;20944;47.048;15.390;2023-04-29T11:46:12;97132.75;;;20.38;54.98
12759;BME280;20944;47.048;15.390;2023-04-29T11:48:45;97177.44;;;20.81;59.71
12759;BME280;20944;47.048;15.390;2023-04-29T11:51:15;97159.16;;;20.98;62.56
12759;BME280;20944;47.048;15.390;2023-04-29T11:53:44;97178.13;;;21.29;57.94
12759;BME280;20944;47.048;15.390;2023-04-29T11:56:14;97176.94;;;21.55;58.81
12759;BME280;20944;47.048;15.390;2023-04-29T11:58:42;97174.13;;;21.79;54.32
12759;BME280;20944;47.048;15.390;2023-04-29T12:01:11;97135.22;;;21.77;54.70
12759;BME280;20944;47.048;15.390;2023-04-29T12:03:40;97169.97;;;22.20;52.56
12759;BME280;20944;47.048;15.390;2023-04-29T12:06:12;97113.28;;;22.05;54.16
12759;BME280;20944;47.048;15.390;2023-04-29T12:08:41;97109.41;;;22.21;54.92
12759;BME280;20944;47.048;15.390;2023-04-29T12:11:09;97159.09;;;22.65;54.16
12759;BME280;20944;47.048;15.390;2023-04-29T12:13:38;97153.47;;;22.68;53.02
12759;BME280;20944;47.048;15.390;2023-04-29T12:16:07;97156.75;;;22.72;49.53
12759;BME280;20944;47.048;15.390;2023-04-29T12:18:36;97148.53;;;22.84;52.12
12759;BME280;20944;47.048;15.390;2023-04-29T12:21:05;97145.69;;;22.97;50.82
12759;BME280;20944;47.048;15.390;2023-04-29T12:23:34;97133.34;;;22.85;48.59
12759;BME280;20944;47.048;15.390;2023-04-29T12:26:03;97147.03;;;22.71;48.47
12759;BME280;20944;47.048;15.390;2023-04-29T12:28:32;97136.84;;;22.44;47.32
12759;BME280;20944;47.048;15.390;2023-04-29T12:31:02;97120.97;;;22.10;49.33
12759;BME280;20944;47.048;15.390;2023-04-29T12:33:30;97135.38;;;22.07;47.53
12759;BME280;20944;47.048;15.390;2023-04-29T12:35:58;97141.06;;;22.25;50.00
12759;BME280;20944;47.048;15.390;2023-04-29T12:38:29;97134.34;;;22.31;49.02
12759;BME280;20944;47.048;15.390;2023-04-29T12:40:59;97090.03;;;22.40;48.50
12759;BME280;20944;47.048;15.390;2023-04-29T12:43:28;97132.34;;;22.97;46.22
12759;BME280;20944;47.048;15.390;2023-04-29T12:45:59;97131.41;;;23.08;45.68
12759;BME280;20944;47.048;15.390;2023-04-29T12:48:30;97124.81;;;23.12;47.29
12759;BME280;20944;47.048;15.390;2023-04-29T12:51:00;97107.56;;;22.95;47.19
12759;BME280;20944;47.048;15.390;2023-04-29T12:53:29;97117.59;;;22.82;48.71
12759;BME280;20944;47.048;15.390;2023-04-29T12:55:58;97107.69;;;22.73;46.48
12759;BME280;20944;47.048;15.390;2023-04-29T12:58:27;97109.38;;;22.74;46.59
12759;BME280;20944;47.048;15.390;2023-04-29T13:00:56;97043.91;;;22.58;46.65
12759;BME280;20944;47.048;15.390;2023-04-29T13:03:25;97108.00;;;22.79;46.55
12759;BME280;20944;47.048;15.390;2023-04-29T13:05:55;97105.91;;;22.62;46.74
12759;BME280;20944;47.048;15.390;2023-04-29T13:08:24;97108.19;;;22.46;48.87